sensor_id;sensor_type;location;lat;lon;timestamp;pressure;altitude;pressure_sealevel;temperature
69007;BMP180;56061;51.748;19.620;2022-11-22T00:00:38;97862.40;;;2.10
69007;BMP180;56061;51.748;19.620;2022-11-22T00:03:04;97863.00;;;2.10
69007;BMP180;56061;51.748;19.620;2022-11-22T00:05:31;97858.00;;;2.02
69007;BMP180;56061;51.748;19.620;2022-11-22T00:07:58;97858.60;;;2.00
69007;BMP180;56061;51.748;19.620;2022-11-22T00:10:25;97863.00;;;2.00
69007;BMP180;56061;51.748;19.620;2022-11-22T00:12:51;97858.60;;;1.90
69007;BMP180;56061;51.748;19.620;2022-11-22T00:15:17;97860.00;;;1.90
69007;BMP180;56061;51.748;19.620;2022-11-22T00:17:44;97864.40;;;1.90
69007;BMP180;56061;51.748;19.620;2022-11-22T00:20:10;97865.80;;;1.90
69007;BMP180;56061;51.748;19.620;2022-11-22T00:22:38;97868.80;;;1.90
69007;BMP180;56061;51.748;19.620;2022-11-22T00:25:10;97868.80;;;1.88
69007;BMP180;56061;51.748;19.620;2022-11-22T00:27:37;97865.40;;;1.80
69007;BMP180;56061;51.748;19.620;2022-11-22T00:30:05;97873.40;;;1.82
69007;BMP180;56061;51.748;19.620;2022-11-22T00:32:31;97870.20;;;1.80
69007;BMP180;56061;51.748;19.620;2022-11-22T00:34:58;97874.00;;;1.80
69007;BMP180;56061;51.748;19.620;2022-11-22T00:37:25;97876.00;;;1.80
69007;BMP180;56061;51.748;19.620;2022-11-22T00:39:51;97878.60;;;1.90
69007;BMP180;56061;51.748;19.620;2022-11-22T00:42:17;97887.00;;;1.90
69007;BMP180;56061;51.748;19.620;2022-11-22T00:44:44;97889.60;;;1.90
69007;BMP180;56061;51.748;19.620;2022-11-22T00:47:10;97891.80;;;1.90
69007;BMP180;56061;51.748;19.620;2022-11-22T00:49:37;97895.20;;;1.90
69007;BMP180;56061;51.748;19.620;2022-11-22T00:52:03;97893.40;;;1.86
69007;BMP180;56061;51.748;19.620;2022-11-22T00:54:30;97892.80;;;1.80
69007;BMP180;56061;51.748;19.620;2022-11-22T00:56:56;97902.00;;;1.90
69007;BMP180;56061;51.748;19.620;2022-11-22T00:59:23;97902.20;;;1.90
69007;BMP180;56061;51.748;19.620;2022-11-22T01:01:49;97914.00;;;1.90
69007;BMP180;56061;51.748;19.620;2022-11-22T01:04:16;97917.20;;;1.90
69007;BMP180;56061;51.748;19.620;2022-11-22T01:06:42;97924.20;;;1.98
69007;BMP180;56061;51.748;19.620;2022-11-22T01:09:10;97924.00;;;2.00
69007;BMP180;56061;51.748;19.620;2022-11-22T01:11:41;97928.60;;;2.00
69007;BMP180;56061;51.748;19.620;2022-11-22T01:14:09;97926.80;;;2.00
69007;BMP180;56061;51.748;19.620;2022-11-22T01:16:35;97924.40;;;1.90
69007;BMP180;56061;51.748;19.620;2022-11-22T01:19:02;97931.60;;;1.96
69007;BMP180;56061;51.748;19.620;2022-11-22T01:21:28;97929.60;;;2.00
69007;BMP180;56061;51.748;19.620;2022-11-22T01:23:55;97929.20;;;2.00
69007;BMP180;56061;51.748;19.620;2022-11-22T01:26:21;97931.80;;;2.00
69007;BMP180;56061;51.748;19.620;2022-11-22T01:28:48;97931.20;;;2.02
69007;BMP180;56061;51.748;19.620;2022-11-22T01:31:14;97932.00;;;2.10
69007;BMP180;56061;51.748;19.620;2022-11-22T01:33:40;97938.40;;;2.10
69007;BMP180;56061;51.748;19.620;2022-11-22T01:36:07;97941.00;;;2.10
69007;BMP180;56061;51.748;19.620;2022-11-22T01:38:33;97939.60;;;2.10
69007;BMP180;56061;51.748;19.620;2022-11-22T01:41:00;97934.60;;;2.12
69007;BMP180;56061;51.748;19.620;2022-11-22T01:43:27;97929.20;;;2.10
69007;BMP180;56061;51.748;19.620;2022-11-22T01:45:57;97925.60;;;2.20
69007;BMP180;56061;51.748;19.620;2022-11-22T01:51:42;97925.20;;;2.20
69007;BMP180;56061;51.748;19.620;2022-11-22T01:54:16;97918.60;;;2.20
69007;BMP180;56061;51.748;19.620;2022-11-22T01:56:49;97921.40;;;2.10
69007;BMP180;56061;51.748;19.620;2022-11-22T01:59:24;97924.80;;;2.10
69007;BMP180;56061;51.748;19.620;2022-11-22T02:01:52;97915.60;;;2.10
69007;BMP180;56061;51.748;19.620;2022-11-22T02:04:21;97910.80;;;2.10
69007;BMP180;56061;51.748;19.620;2022-11-22T02:07:17;97907.20;;;2.10
69007;BMP180;56061;51.748;19.620;2022-11-22T02:09:50;97915.00;;;2.20
69007;BMP180;56061;51.748;19.620;2022-11-22T02:12:21;97915.00;;;2.20
69007;BMP180;56061;51.748;19.620;2022-11-22T02:14:48;97915.40;;;2.20
69007;BMP180;56061;51.748;19.620;2022-11-22T02:17:15;97908.00;;;2.10
69007;BMP180;56061;51.748;19.620;2022-11-22T02:19:45;97909.40;;;2.10
69007;BMP180;56061;51.748;19.620;2022-11-22T02:25:33;97910.00;;;2.10
69007;BMP180;56061;51.748;19.620;2022-11-22T02:28:06;97905.80;;;2.10
69007;BMP180;56061;51.748;19.620;2022-11-22T02:30:35;97901.60;;;2.10
69007;BMP180;56061;51.748;19.620;2022-11-22T02:33:03;97906.00;;;2.10
69007;BMP180;56061;51.748;19.620;2022-11-22T02:35:30;97908.00;;;2.00
69007;BMP180;56061;51.748;19.620;2022-11-22T02:38:09;97901.40;;;2.10
69007;BMP180;56061;51.748;19.620;2022-11-22T02:40:42;97897.20;;;2.00
69007;BMP180;56061;51.748;19.620;2022-11-22T02:43:18;97890.00;;;2.00
69007;BMP180;56061;51.748;19.620;2022-11-22T02:45:45;97895.60;;;2.00
69007;BMP180;56061;51.748;19.620;2022-11-22T02:48:14;97897.80;;;1.98
69007;BMP180;56061;51.748;19.620;2022-11-22T02:50:42;97892.20;;;1.90
69007;BMP180;56061;51.748;19.620;2022-11-22T02:53:11;97893.60;;;1.86
69007;BMP180;56061;51.748;19.620;2022-11-22T02:55:38;97897.40;;;1.84
69007;BMP180;56061;51.748;19.620;2022-11-22T02:58:05;97894.40;;;1.90
69007;BMP180;56061;51.748;19.620;2022-11-22T03:00:35;97896.60;;;1.92
69007;BMP180;56061;51.748;19.620;2022-11-22T03:03:01;97900.80;;;1.96
69007;BMP180;56061;51.748;19.620;2022-11-22T03:05:28;97904.40;;;2.00
69007;BMP180;56061;51.748;19.620;2022-11-22T03:07:54;97898.60;;;1.98
69007;BMP180;56061;51.748;19.620;2022-11-22T03:10:21;97899.60;;;1.90
69007;BMP180;56061;51.748;19.620;2022-11-22T03:12:47;97891.20;;;1.92
69007;BMP180;56061;51.748;19.620;2022-11-22T03:15:14;97890.00;;;2.00
69007;BMP180;56061;51.748;19.620;2022-11-22T03:17:40;97888.20;;;1.90
69007;BMP180;56061;51.748;19.620;2022-11-22T03:20:08;97897.40;;;1.90
69007;BMP180;56061;51.748;19.620;2022-11-22T03:22:34;97893.20;;;1.90
69007;BMP180;56061;51.748;19.620;2022-11-22T03:25:01;97894.20;;;1.82
69007;BMP180;56061;51.748;19.620;2022-11-22T03:27:28;97893.00;;;1.90
69007;BMP180;56061;51.748;19.620;2022-11-22T03:29:54;97896.40;;;1.90
69007;BMP180;56061;51.748;19.620;2022-11-22T03:32:20;97892.00;;;1.90
69007;BMP180;56061;51.748;19.620;2022-11-22T03:34:47;97888.00;;;2.00
69007;BMP180;56061;51.748;19.620;2022-11-22T03:37:13;97887.80;;;2.00
69007;BMP180;56061;51.748;19.620;2022-11-22T03:39:40;97883.60;;;2.00
69007;BMP180;56061;51.748;19.620;2022-11-22T03:42:06;97889.40;;;2.00
69007;BMP180;56061;51.748;19.620;2022-11-22T03:44:32;97891.40;;;2.00
69007;BMP180;56061;51.748;19.620;2022-11-22T03:46:59;97891.20;;;2.00
69007;BMP180;56061;51.748;19.620;2022-11-22T03:49:25;97895.80;;;2.00
69007;BMP180;56061;51.748;19.620;2022-11-22T03:51:52;97894.60;;;2.00
69007;BMP180;56061;51.748;19.620;2022-11-22T03:54:18;97892.40;;;2.00
69007;BMP180;56061;51.748;19.620;2022-11-22T03:56:45;97883.80;;;2.00
69007;BMP180;56061;51.748;19.620;2022-11-22T03:59:11;97880.40;;;2.00
69007;BMP180;56061;51.748;19.620;2022-11-22T04:01:38;97889.60;;;2.08
69007;BMP180;56061;51.748;19.620;2022-11-22T04:04:05;97897.00;;;2.10
69007;BMP180;56061;51.748;19.620;2022-11-22T04:06:31;97896.00;;;2.00
69007;BMP180;56061;51.748;19.620;2022-11-22T04:08:58;97895.40;;;1.90
69007;BMP180;56061;51.748;19.620;2022-11-22T04:11:24;97893.00;;;1.80
69007;BMP180;56061;51.748;19.620;2022-11-22T04:13:51;97895.60;;;1.70
69007;BMP180;56061;51.748;19.620;2022-11-22T04:16:36;97896.80;;;1.80
69007;BMP180;56061;51.748;19.620;2022-11-22T04:19:02;97893.60;;;1.72
69007;BMP180;56061;51.748;19.620;2022-11-22T04:21:29;97898.40;;;1.80
69007;BMP180;56061;51.748;19.620;2022-11-22T04:24:07;97902.00;;;1.90
69007;BMP180;56061;51.748;19.620;2022-11-22T04:26:53;97905.80;;;2.00
69007;BMP180;56061;51.748;19.620;2022-11-22T04:29:20;97909.80;;;2.10
69007;BMP180;56061;51.748;19.620;2022-11-22T04:31:49;97907.40;;;2.10
69007;BMP180;56061;51.748;19.620;2022-11-22T04:34:35;97905.40;;;2.10
69007;BMP180;56061;51.748;19.620;2022-11-22T04:37:03;97903.60;;;2.20
69007;BMP180;56061;51.748;19.620;2022-11-22T04:39:30;97906.20;;;2.10
69007;BMP180;56061;51.748;19.620;2022-11-22T04:41:57;97902.80;;;2.00
69007;BMP180;56061;51.748;19.620;2022-11-22T04:44:43;97904.40;;;1.90
69007;BMP180;56061;51.748;19.620;2022-11-22T04:47:14;97898.00;;;1.80
69007;BMP180;56061;51.748;19.620;2022-11-22T04:50:07;97897.80;;;1.90
69007;BMP180;56061;51.748;19.620;2022-11-22T04:52:56;97892.60;;;1.92
69007;BMP180;56061;51.748;19.620;2022-11-22T04:55:23;97891.40;;;1.90
69007;BMP180;56061;51.748;19.620;2022-11-22T04:57:49;97894.80;;;1.90
69007;BMP180;56061;51.748;19.620;2022-11-22T05:00:24;97887.20;;;1.90
69007;BMP180;56061;51.748;19.620;2022-11-22T05:02:52;97894.80;;;2.00
69007;BMP180;56061;51.748;19.620;2022-11-22T05:05:19;97894.60;;;2.00
69007;BMP180;56061;51.748;19.620;2022-11-22T05:07:45;97895.20;;;1.90
69007;BMP180;56061;51.748;19.620;2022-11-22T05:10:12;97892.40;;;1.98
69007;BMP180;56061;51.748;19.620;2022-11-22T05:12:40;97889.80;;;2.00
69007;BMP180;56061;51.748;19.620;2022-11-22T05:15:09;97891.60;;;2.00
69007;BMP180;56061;51.748;19.620;2022-11-22T05:17:37;97893.60;;;2.00
69007;BMP180;56061;51.748;19.620;2022-11-22T05:20:05;97896.80;;;2.10
69007;BMP180;56061;51.748;19.620;2022-11-22T05:22:33;97893.40;;;2.20
69007;BMP180;56061;51.748;19.620;2022-11-22T05:25:18;97902.20;;;2.20
69007;BMP180;56061;51.748;19.620;2022-11-22T05:27:52;97902.40;;;2.20
69007;BMP180;56061;51.748;19.620;2022-11-22T05:30:19;97903.00;;;2.20
69007;BMP180;56061;51.748;19.620;2022-11-22T05:32:46;97907.40;;;2.20
69007;BMP180;56061;51.748;19.620;2022-11-22T05:35:12;97901.00;;;2.20
69007;BMP180;56061;51.748;19.620;2022-11-22T05:37:39;97892.40;;;2.20
69007;BMP180;56061;51.748;19.620;2022-11-22T05:40:06;97894.80;;;2.28
69007;BMP180;56061;51.748;19.620;2022-11-22T05:42:33;97894.00;;;2.20
69007;BMP180;56061;51.748;19.620;2022-11-22T05:44:59;97892.00;;;2.20
69007;BMP180;56061;51.748;19.620;2022-11-22T05:47:26;97893.80;;;2.20
69007;BMP180;56061;51.748;19.620;2022-11-22T05:49:52;97899.80;;;2.20
69007;BMP180;56061;51.748;19.620;2022-11-22T05:52:18;97899.60;;;2.16
69007;BMP180;56061;51.748;19.620;2022-11-22T05:54:45;97907.00;;;2.20
69007;BMP180;56061;51.748;19.620;2022-11-22T05:57:11;97908.80;;;2.20
69007;BMP180;56061;51.748;19.620;2022-11-22T05:59:38;97914.00;;;2.20
69007;BMP180;56061;51.748;19.620;2022-11-22T06:02:09;97916.00;;;2.10
69007;BMP180;56061;51.748;19.620;2022-11-22T06:04:36;97915.20;;;2.20
69007;BMP180;56061;51.748;19.620;2022-11-22T06:07:02;97915.40;;;2.20
69007;BMP180;56061;51.748;19.620;2022-11-22T06:09:35;97915.00;;;2.10
69007;BMP180;56061;51.748;19.620;2022-11-22T06:12:02;97915.20;;;2.10
69007;BMP180;56061;51.748;19.620;2022-11-22T06:14:29;97915.60;;;2.20
69007;BMP180;56061;51.748;19.620;2022-11-22T06:16:55;97913.60;;;2.22
69007;BMP180;56061;51.748;19.620;2022-11-22T06:19:22;97914.20;;;2.30
69007;BMP180;56061;51.748;19.620;2022-11-22T06:21:48;97908.00;;;2.40
69007;BMP180;56061;51.748;19.620;2022-11-22T06:24:14;97911.00;;;2.50
69007;BMP180;56061;51.748;19.620;2022-11-22T06:26:41;97906.40;;;2.50
69007;BMP180;56061;51.748;19.620;2022-11-22T06:29:07;97904.20;;;2.50
69007;BMP180;56061;51.748;19.620;2022-11-22T06:31:34;97906.00;;;2.52
69007;BMP180;56061;51.748;19.620;2022-11-22T06:34:00;97913.80;;;2.60
69007;BMP180;56061;51.748;19.620;2022-11-22T06:36:30;97915.80;;;2.60
69007;BMP180;56061;51.748;19.620;2022-11-22T06:38:58;97922.80;;;2.60
69007;BMP180;56061;51.748;19.620;2022-11-22T06:41:33;97928.80;;;2.52
69007;BMP180;56061;51.748;19.620;2022-11-22T06:44:05;97930.60;;;2.50
69007;BMP180;56061;51.748;19.620;2022-11-22T06:46:32;97928.80;;;2.60
69007;BMP180;56061;51.748;19.620;2022-11-22T06:48:59;97932.00;;;2.70
69007;BMP180;56061;51.748;19.620;2022-11-22T06:51:29;97925.80;;;2.70
69007;BMP180;56061;51.748;19.620;2022-11-22T06:53:56;97930.20;;;2.70
69007;BMP180;56061;51.748;19.620;2022-11-22T06:56:35;97928.80;;;2.70
69007;BMP180;56061;51.748;19.620;2022-11-22T06:59:04;97930.20;;;2.70
69007;BMP180;56061;51.748;19.620;2022-11-22T07:01:33;97928.80;;;2.70
69007;BMP180;56061;51.748;19.620;2022-11-22T07:04:00;97919.00;;;2.60
69007;BMP180;56061;51.748;19.620;2022-11-22T07:06:31;97930.20;;;2.60
69007;BMP180;56061;51.748;19.620;2022-11-22T07:09:00;97933.60;;;2.60
69007;BMP180;56061;51.748;19.620;2022-11-22T07:11:30;97934.40;;;2.60
69007;BMP180;56061;51.748;19.620;2022-11-22T07:13:59;97931.40;;;2.70
69007;BMP180;56061;51.748;19.620;2022-11-22T07:16:33;97928.40;;;2.70
69007;BMP180;56061;51.748;19.620;2022-11-22T07:19:00;97940.00;;;2.80
69007;BMP180;56061;51.748;19.620;2022-11-22T07:21:26;97946.60;;;2.90
69007;BMP180;56061;51.748;19.620;2022-11-22T07:23:54;97943.00;;;2.90
69007;BMP180;56061;51.748;19.620;2022-11-22T07:26:24;97940.20;;;2.90
69007;BMP180;56061;51.748;19.620;2022-11-22T07:28:51;97943.60;;;2.90
69007;BMP180;56061;51.748;19.620;2022-11-22T07:31:18;97949.00;;;2.90
69007;BMP180;56061;51.748;19.620;2022-11-22T07:33:46;97946.60;;;3.00
69007;BMP180;56061;51.748;19.620;2022-11-22T07:36:22;97947.00;;;3.00
69007;BMP180;56061;51.748;19.620;2022-11-22T07:38:49;97948.80;;;3.10
69007;BMP180;56061;51.748;19.620;2022-11-22T07:41:17;97954.60;;;3.10
69007;BMP180;56061;51.748;19.620;2022-11-22T07:43:44;97955.00;;;3.10
69007;BMP180;56061;51.748;19.620;2022-11-22T07:46:32;97969.60;;;3.16
69007;BMP180;56061;51.748;19.620;2022-11-22T07:49:00;97966.80;;;3.20
69007;BMP180;56061;51.748;19.620;2022-11-22T07:51:28;97963.80;;;3.20
69007;BMP180;56061;51.748;19.620;2022-11-22T07:53:55;97959.80;;;3.10
69007;BMP180;56061;51.748;19.620;2022-11-22T07:56:23;97954.00;;;3.10
69007;BMP180;56061;51.748;19.620;2022-11-22T07:58:49;97952.40;;;3.10
69007;BMP180;56061;51.748;19.620;2022-11-22T08:01:17;97945.60;;;3.06
69007;BMP180;56061;51.748;19.620;2022-11-22T08:03:45;97941.60;;;3.10
69007;BMP180;56061;51.748;19.620;2022-11-22T08:06:12;97938.80;;;3.14
69007;BMP180;56061;51.748;19.620;2022-11-22T08:08:39;97939.80;;;3.20
69007;BMP180;56061;51.748;19.620;2022-11-22T08:11:07;97938.40;;;3.20
69007;BMP180;56061;51.748;19.620;2022-11-22T08:13:34;97936.20;;;3.20
69007;BMP180;56061;51.748;19.620;2022-11-22T08:16:09;97936.60;;;3.30
69007;BMP180;56061;51.748;19.620;2022-11-22T08:18:37;97937.60;;;3.34
69007;BMP180;56061;51.748;19.620;2022-11-22T08:21:10;97941.00;;;3.40
69007;BMP180;56061;51.748;19.620;2022-11-22T08:23:37;97943.60;;;3.40
69007;BMP180;56061;51.748;19.620;2022-11-22T08:26:05;97943.60;;;3.48
69007;BMP180;56061;51.748;19.620;2022-11-22T08:28:32;97938.00;;;3.50
69007;BMP180;56061;51.748;19.620;2022-11-22T08:31:12;97944.00;;;3.58
69007;BMP180;56061;51.748;19.620;2022-11-22T08:33:39;97941.60;;;3.60
69007;BMP180;56061;51.748;19.620;2022-11-22T08:36:07;97947.00;;;3.50
69007;BMP180;56061;51.748;19.620;2022-11-22T08:38:33;97952.60;;;3.52
69007;BMP180;56061;51.748;19.620;2022-11-22T08:41:00;97950.80;;;3.60
69007;BMP180;56061;51.748;19.620;2022-11-22T08:43:27;97951.40;;;3.60
69007;BMP180;56061;51.748;19.620;2022-11-22T08:45:57;97948.60;;;3.68
69007;BMP180;56061;51.748;19.620;2022-11-22T08:48:29;97951.80;;;3.64
69007;BMP180;56061;51.748;19.620;2022-11-22T08:50:59;97956.80;;;3.60
69007;BMP180;56061;51.748;19.620;2022-11-22T08:53:26;97956.60;;;3.60
69007;BMP180;56061;51.748;19.620;2022-11-22T08:55:53;97955.00;;;3.60
69007;BMP180;56061;51.748;19.620;2022-11-22T08:58:21;97961.40;;;3.60
69007;BMP180;56061;51.748;19.620;2022-11-22T09:00:47;97962.60;;;3.70
69007;BMP180;56061;51.748;19.620;2022-11-22T09:03:14;97963.80;;;3.72
69007;BMP180;56061;51.748;19.620;2022-11-22T09:05:40;97967.60;;;3.80
69007;BMP180;56061;51.748;19.620;2022-11-22T09:08:27;97976.80;;;3.80
69007;BMP180;56061;51.748;19.620;2022-11-22T09:11:10;97987.40;;;3.88
69007;BMP180;56061;51.748;19.620;2022-11-22T09:13:38;97991.60;;;3.90
69007;BMP180;56061;51.748;19.620;2022-11-22T09:16:09;98000.40;;;3.90
69007;BMP180;56061;51.748;19.620;2022-11-22T09:18:37;98002.60;;;3.90
69007;BMP180;56061;51.748;19.620;2022-11-22T09:21:11;98002.60;;;3.90
69007;BMP180;56061;51.748;19.620;2022-11-22T09:23:42;98003.20;;;3.90
69007;BMP180;56061;51.748;19.620;2022-11-22T09:26:15;98001.40;;;3.90
69007;BMP180;56061;51.748;19.620;2022-11-22T09:28:42;98006.20;;;3.88
69007;BMP180;56061;51.748;19.620;2022-11-22T09:31:12;98012.00;;;3.80
69007;BMP180;56061;51.748;19.620;2022-11-22T09:33:40;98005.40;;;3.80
69007;BMP180;56061;51.748;19.620;2022-11-22T09:36:14;97997.20;;;3.90
69007;BMP180;56061;51.748;19.620;2022-11-22T09:38:41;98000.00;;;3.98
69007;BMP180;56061;51.748;19.620;2022-11-22T09:44:40;97999.80;;;3.90
69007;BMP180;56061;51.748;19.620;2022-11-22T09:50:58;98002.00;;;3.90
69007;BMP180;56061;51.748;19.620;2022-11-22T09:56:10;97982.00;;;3.88
69007;BMP180;56061;51.748;19.620;2022-11-22T09:58:46;97982.40;;;3.96
69007;BMP180;56061;51.748;19.620;2022-11-22T10:01:20;97975.60;;;3.92
69007;BMP180;56061;51.748;19.620;2022-11-22T10:04:01;97965.20;;;3.90
69007;BMP180;56061;51.748;19.620;2022-11-22T10:06:42;97959.80;;;4.00
69007;BMP180;56061;51.748;19.620;2022-11-22T10:09:46;97955.60;;;4.00
69007;BMP180;56061;51.748;19.620;2022-11-22T10:12:37;97949.40;;;4.10
69007;BMP180;56061;51.748;19.620;2022-11-22T10:15:34;97946.80;;;4.14
69007;BMP180;56061;51.748;19.620;2022-11-22T10:18:21;97944.80;;;4.28
69007;BMP180;56061;51.748;19.620;2022-11-22T10:20:49;97948.80;;;4.24
69007;BMP180;56061;51.748;19.620;2022-11-22T10:23:21;97940.40;;;4.30
69007;BMP180;56061;51.748;19.620;2022-11-22T10:29:07;97925.20;;;4.32
69007;BMP180;56061;51.748;19.620;2022-11-22T10:34:46;97927.80;;;4.52
69007;BMP180;56061;51.748;19.620;2022-11-22T10:37:29;97931.00;;;4.68
69007;BMP180;56061;51.748;19.620;2022-11-22T10:40:37;97930.20;;;4.70
69007;BMP180;56061;51.748;19.620;2022-11-22T10:46:59;97955.40;;;4.60
69007;BMP180;56061;51.748;19.620;2022-11-22T10:49:56;97958.80;;;4.50
69007;BMP180;56061;51.748;19.620;2022-11-22T11:04:39;97967.00;;;4.60
69007;BMP180;56061;51.748;19.620;2022-11-22T11:07:17;97964.20;;;4.64
69007;BMP180;56061;51.748;19.620;2022-11-22T11:09:49;97972.20;;;4.70
69007;BMP180;56061;51.748;19.620;2022-11-22T11:12:46;97970.80;;;4.66
69007;BMP180;56061;51.748;19.620;2022-11-22T11:15:21;97969.00;;;4.60
69007;BMP180;56061;51.748;19.620;2022-11-22T11:17:56;97970.60;;;4.70
69007;BMP180;56061;51.748;19.620;2022-11-22T11:20:26;97962.80;;;4.70
69007;BMP180;56061;51.748;19.620;2022-11-22T11:22:53;97959.60;;;4.70
69007;BMP180;56061;51.748;19.620;2022-11-22T11:25:43;97957.80;;;4.60
69007;BMP180;56061;51.748;19.620;2022-11-22T11:28:21;97956.60;;;4.70
69007;BMP180;56061;51.748;19.620;2022-11-22T11:30:58;97953.40;;;4.70
69007;BMP180;56061;51.748;19.620;2022-11-22T11:33:29;97949.60;;;4.70
69007;BMP180;56061;51.748;19.620;2022-11-22T11:36:06;97941.20;;;4.70
69007;BMP180;56061;51.748;19.620;2022-11-22T11:38:48;97941.40;;;4.60
69007;BMP180;56061;51.748;19.620;2022-11-22T11:41:28;97928.80;;;4.70
69007;BMP180;56061;51.748;19.620;2022-11-22T11:43:58;97927.20;;;4.80
69007;BMP180;56061;51.748;19.620;2022-11-22T11:46:28;97915.80;;;4.80
69007;BMP180;56061;51.748;19.620;2022-11-22T11:49:10;97916.20;;;4.72
69007;BMP180;56061;51.748;19.620;2022-11-22T11:51:44;97911.20;;;4.70
69007;BMP180;56061;51.748;19.620;2022-11-22T11:54:19;97906.40;;;4.70
69007;BMP180;56061;51.748;19.620;2022-11-22T11:57:00;97907.80;;;4.60
69007;BMP180;56061;51.748;19.620;2022-11-22T12:02:16;97904.20;;;4.50
69007;BMP180;56061;51.748;19.620;2022-11-22T12:05:01;97907.60;;;4.50
69007;BMP180;56061;51.748;19.620;2022-11-22T12:10:49;97904.60;;;4.50
69007;BMP180;56061;51.748;19.620;2022-11-22T12:14:01;97905.60;;;4.40
69007;BMP180;56061;51.748;19.620;2022-11-22T12:16:50;97905.80;;;4.40
69007;BMP180;56061;51.748;19.620;2022-11-22T12:22:46;97903.20;;;4.40
69007;BMP180;56061;51.748;19.620;2022-11-22T12:25:37;97898.20;;;4.32
69007;BMP180;56061;51.748;19.620;2022-11-22T12:28:17;97903.20;;;4.40
69007;BMP180;56061;51.748;19.620;2022-11-22T12:31:21;97890.00;;;4.40
69007;BMP180;56061;51.748;19.620;2022-11-22T12:33:55;97892.40;;;4.40
69007;BMP180;56061;51.748;19.620;2022-11-22T12:36:45;97894.60;;;4.30
69007;BMP180;56061;51.748;19.620;2022-11-22T12:39:22;97893.40;;;4.20
69007;BMP180;56061;51.748;19.620;2022-11-22T12:42:00;97894.20;;;4.30
69007;BMP180;56061;51.748;19.620;2022-11-22T12:44:35;97898.20;;;4.30
69007;BMP180;56061;51.748;19.620;2022-11-22T12:47:12;97897.00;;;4.20
69007;BMP180;56061;51.748;19.620;2022-11-22T12:49:49;97894.60;;;4.20
69007;BMP180;56061;51.748;19.620;2022-11-22T12:52:42;97895.00;;;4.10
69007;BMP180;56061;51.748;19.620;2022-11-22T12:55:17;97903.20;;;4.10
69007;BMP180;56061;51.748;19.620;2022-11-22T12:57:54;97906.40;;;4.06
69007;BMP180;56061;51.748;19.620;2022-11-22T13:00:25;97907.00;;;3.90
69007;BMP180;56061;51.748;19.620;2022-11-22T13:03:07;97909.00;;;3.90
69007;BMP180;56061;51.748;19.620;2022-11-22T13:05:46;97915.40;;;3.80
69007;BMP180;56061;51.748;19.620;2022-11-22T13:08:27;97920.20;;;3.80
69007;BMP180;56061;51.748;19.620;2022-11-22T13:11:21;97927.60;;;3.80
69007;BMP180;56061;51.748;19.620;2022-11-22T13:14:03;97926.20;;;3.70
69007;BMP180;56061;51.748;19.620;2022-11-22T13:16:33;97918.60;;;3.72
69007;BMP180;56061;51.748;19.620;2022-11-22T13:19:03;97918.20;;;3.70
69007;BMP180;56061;51.748;19.620;2022-11-22T13:21:58;97919.20;;;3.70
69007;BMP180;56061;51.748;19.620;2022-11-22T13:24:39;97913.00;;;3.78
69007;BMP180;56061;51.748;19.620;2022-11-22T13:27:27;97914.00;;;3.80
69007;BMP180;56061;51.748;19.620;2022-11-22T13:29:58;97911.80;;;3.80
69007;BMP180;56061;51.748;19.620;2022-11-22T13:32:31;97912.60;;;3.70
69007;BMP180;56061;51.748;19.620;2022-11-22T13:35:23;97914.00;;;3.70
69007;BMP180;56061;51.748;19.620;2022-11-22T13:38:02;97904.80;;;3.60
69007;BMP180;56061;51.748;19.620;2022-11-22T13:40:36;97907.80;;;3.50
69007;BMP180;56061;51.748;19.620;2022-11-22T13:45:58;97901.60;;;3.50
69007;BMP180;56061;51.748;19.620;2022-11-22T13:51:09;97900.20;;;3.50
69007;BMP180;56061;51.748;19.620;2022-11-22T13:53:42;97899.80;;;3.40
69007;BMP180;56061;51.748;19.620;2022-11-22T13:59:37;97899.80;;;3.30
69007;BMP180;56061;51.748;19.620;2022-11-22T14:09:55;97884.60;;;3.20
69007;BMP180;56061;51.748;19.620;2022-11-22T14:13:05;97888.60;;;3.10
69007;BMP180;56061;51.748;19.620;2022-11-22T14:16:02;97889.60;;;3.06
69007;BMP180;56061;51.748;19.620;2022-11-22T14:18:46;97892.00;;;3.10
69007;BMP180;56061;51.748;19.620;2022-11-22T14:21:52;97899.20;;;3.10
69007;BMP180;56061;51.748;19.620;2022-11-22T14:25:04;97902.00;;;2.90
69007;BMP180;56061;51.748;19.620;2022-11-22T14:31:31;97899.40;;;2.84
69007;BMP180;56061;51.748;19.620;2022-11-22T14:34:22;97906.40;;;2.70
69007;BMP180;56061;51.748;19.620;2022-11-22T14:47:53;97900.20;;;2.40
69007;BMP180;56061;51.748;19.620;2022-11-22T14:50:32;97902.00;;;2.40
69007;BMP180;56061;51.748;19.620;2022-11-22T14:53:17;97901.20;;;2.40
69007;BMP180;56061;51.748;19.620;2022-11-22T14:55:46;97906.40;;;2.30
69007;BMP180;56061;51.748;19.620;2022-11-22T14:58:27;97906.20;;;2.30
69007;BMP180;56061;51.748;19.620;2022-11-22T15:01:31;97907.00;;;2.30
69007;BMP180;56061;51.748;19.620;2022-11-22T15:07:32;97913.20;;;2.30
69007;BMP180;56061;51.748;19.620;2022-11-22T15:13:37;97904.40;;;2.40
69007;BMP180;56061;51.748;19.620;2022-11-22T15:16:22;97908.60;;;2.36
69007;BMP180;56061;51.748;19.620;2022-11-22T15:19:36;97910.20;;;2.26
69007;BMP180;56061;51.748;19.620;2022-11-22T15:22:27;97917.80;;;2.30
69007;BMP180;56061;51.748;19.620;2022-11-22T15:25:17;97922.60;;;2.30
69007;BMP180;56061;51.748;19.620;2022-11-22T15:28:10;97928.00;;;2.30
69007;BMP180;56061;51.748;19.620;2022-11-22T15:30:59;97931.80;;;2.30
69007;BMP180;56061;51.748;19.620;2022-11-22T15:33:54;97937.00;;;2.30
69007;BMP180;56061;51.748;19.620;2022-11-22T15:37:09;97936.40;;;2.30
69007;BMP180;56061;51.748;19.620;2022-11-22T15:39:58;97936.40;;;2.30
69007;BMP180;56061;51.748;19.620;2022-11-22T15:42:59;97938.40;;;2.24
69007;BMP180;56061;51.748;19.620;2022-11-22T15:45:47;97942.20;;;2.30
69007;BMP180;56061;51.748;19.620;2022-11-22T15:48:41;97942.00;;;2.30
69007;BMP180;56061;51.748;19.620;2022-11-22T15:51:34;97930.20;;;2.30
69007;BMP180;56061;51.748;19.620;2022-11-22T15:54:39;97931.40;;;2.30
69007;BMP180;56061;51.748;19.620;2022-11-22T15:57:35;97928.60;;;2.40
69007;BMP180;56061;51.748;19.620;2022-11-22T16:00:10;97928.60;;;2.40
69007;BMP180;56061;51.748;19.620;2022-11-22T16:02:52;97920.00;;;2.40
69007;BMP180;56061;51.748;19.620;2022-11-22T16:05:36;97923.20;;;2.42
69007;BMP180;56061;51.748;19.620;2022-11-22T16:08:23;97925.80;;;2.50
69007;BMP180;56061;51.748;19.620;2022-11-22T16:10:57;97924.00;;;2.60